Time;durP1;ratioP1;P1;durP2;ratioP2;P2;SDS_P1;SDS_P2;PMS_P1;PMS_P2;Temp;Humidity;BMP_temperature;BMP_pressure;BME280_temperature;BME280_humidity;BME280_pressure;Samples;Min_cycle;Max_cycle;Signal;HPM_P1;HPM_P2
2019/06/12 00:00:55;;;;;;;13.8;12.5;;;;;;;16.41;98.48438;94548;;;;
2019/06/12 00:01:56;;;;;;;13.8;12.5;;;;;;;16.41;98.48438;94548;;;;
2019/06/12 00:02:57;;;;;;;13.8;12.5;;;;;;;16.41;98.48438;94548;;;;
2019/06/12 00:03:58;;;;;;;13.8;12.5;;;;;;;16.41;98.48438;94548;;;;
2019/06/12 00:04:59;;;;;;;13.8;12.5;;;;;;;16.41;98.48438;94548;;;;
2019/06/12 00:06:01;;;;;;;15.05;13.65;;;;;;;16.35;98.70801;94547.81;;;;
2019/06/12 00:07:02;;;;;;;15.05;13.65;;;;;;;16.35;98.70801;94547.81;;;;
2019/06/12 00:08:03;;;;;;;15.05;13.65;;;;;;;16.35;98.70801;94547.81;;;;
2019/06/12 00:09:04;;;;;;;15.05;13.65;;;;;;;16.35;98.70801;94547.81;;;;
2019/06/12 00:10:10;;;;;;;15.05;13.65;;;;;;;16.35;98.70801;94547.81;;;;
2019/06/12 00:11:11;;;;;;;15.05;13.65;;;;;;;16.35;98.70801;94547.81;;;;
2019/06/12 00:12:12;;;;;;;15.05;13.65;;;;;;;16.35;98.70801;94547.81;;;;
2019/06/12 00:13:13;;;;;;;15.05;13.65;;;;;;;16.35;98.70801;94547.81;;;;
2019/06/12 00:14:15;;;;;;;15.05;13.65;;;;;;;16.35;98.70801;94547.81;;;;
2019/06/12 00:15:16;;;;;;;15.05;13.65;;;;;;;16.35;98.70801;94547.81;;;;
2019/06/12 00:16:17;;;;;;;15.05;13.65;;;;;;;16.35;98.70801;94547.81;;;;
2019/06/12 00:17:18;;;;;;;15.05;13.65;;;;;;;16.35;98.70801;94547.81;;;;
2019/06/12 00:18:19;;;;;;;15.05;13.65;;;;;;;16.35;98.70801;94547.81;;;;
2019/06/12 00:19:20;;;;;;;15.05;13.65;;;;;;;16.35;98.70801;94547.81;;;;
2019/06/12 00:20:21;;;;;;;15.05;13.65;;;;;;;16.35;98.70801;94547.81;;;;
2019/06/12 00:21:22;;;;;;;15.05;13.65;;;;;;;16.35;98.70801;94547.81;;;;
2019/06/12 00:22:23;;;;;;;15.05;13.65;;;;;;;16.35;98.70801;94547.81;;;;
2019/06/12 00:23:24;;;;;;;15.05;13.65;;;;;;;16.35;98.70801;94547.81;;;;
2019/06/12 00:24:25;;;;;;;15.05;13.65;;;;;;;16.35;98.70801;94547.81;;;;
2019/06/12 00:25:26;;;;;;;15.05;13.65;;;;;;;16.35;98.70801;94547.81;;;;
2019/06/12 00:26:27;;;;;;;15.05;13.65;;;;;;;16.35;98.70801;94547.81;;;;
2019/06/12 00:27:28;;;;;;;15.05;13.65;;;;;;;16.35;98.70801;94547.81;;;;
2019/06/12 00:28:29;;;;;;;15.05;13.65;;;;;;;16.35;98.70801;94547.81;;;;
2019/06/12 00:29:30;;;;;;;15.05;13.65;;;;;;;16.35;98.70801;94547.81;;;;
2019/06/12 00:30:31;;;;;;;15.05;13.65;;;;;;;16.35;98.70801;94547.81;;;;
2019/06/12 00:31:32;;;;;;;15.05;13.65;;;;;;;16.35;98.70801;94547.81;;;;
2019/06/12 00:32:33;;;;;;;15.05;13.65;;;;;;;16.35;98.70801;94547.81;;;;
2019/06/12 00:33:35;;;;;;;15.05;13.65;;;;;;;16.35;98.70801;94547.81;;;;
2019/06/12 00:34:36;;;;;;;15.05;13.65;;;;;;;16.35;98.70801;94547.81;;;;
2019/06/12 00:35:37;;;;;;;15.05;13.65;;;;;;;16.35;98.70801;94547.81;;;;
2019/06/12 00:36:38;;;;;;;15.05;13.65;;;;;;;16.35;98.70801;94547.81;;;;
2019/06/12 00:37:39;;;;;;;17.5;16;;;;;;;16.13;99.60645;94495.62;;;;
2019/06/12 00:38:40;;;;;;;17.5;16;;;;;;;16.13;99.60645;94495.62;;;;
2019/06/12 00:39:41;;;;;;;17.5;16;;;;;;;16.13;99.60645;94495.62;;;;
2019/06/12 00:40:42;;;;;;;17.5;16;;;;;;;16.13;99.60645;94495.62;;;;
2019/06/12 00:41:43;;;;;;;17.5;16;;;;;;;16.13;99.60645;94495.62;;;;
2019/06/12 00:42:44;;;;;;;17.5;16;;;;;;;16.13;99.60645;94495.62;;;;
2019/06/12 00:43:45;;;;;;;17.5;16;;;;;;;16.13;99.60645;94495.62;;;;
2019/06/12 00:44:46;;;;;;;17.5;16;;;;;;;16.13;99.60645;94495.62;;;;
2019/06/12 00:45:48;;;;;;;17.5;16;;;;;;;16.13;99.60645;94495.62;;;;
2019/06/12 00:46:49;;;;;;;17.5;16;;;;;;;16.13;99.60645;94495.62;;;;
2019/06/12 00:47:50;;;;;;;17.5;16;;;;;;;16.13;99.60645;94495.62;;;;
2019/06/12 00:48:51;;;;;;;17.5;16;;;;;;;16.13;99.60645;94495.62;;;;
2019/06/12 00:49:52;;;;;;;17.5;16;;;;;;;16.13;99.60645;94495.62;;;;
2019/06/12 00:50:53;;;;;;;17.5;16;;;;;;;16.13;99.60645;94495.62;;;;
2019/06/12 00:51:54;;;;;;;17.5;16;;;;;;;16.13;99.60645;94495.62;;;;
2019/06/12 00:52:55;;;;;;;17.5;16;;;;;;;16.13;99.60645;94495.62;;;;
2019/06/12 00:53:56;;;;;;;17.5;16;;;;;;;16.13;99.60645;94495.62;;;;
2019/06/12 00:54:57;;;;;;;17.5;16;;;;;;;16.13;99.60645;94495.62;;;;
2019/06/12 00:55:58;;;;;;;17.5;16;;;;;;;16.13;99.60645;94495.62;;;;
2019/06/12 00:56:59;;;;;;;17.5;16;;;;;;;16.13;99.60645;94495.62;;;;
2019/06/12 00:58:00;;;;;;;17.5;16;;;;;;;16.13;99.60645;94495.62;;;;
2019/06/12 00:59:01;;;;;;;17.5;16;;;;;;;16.13;99.60645;94495.62;;;;
2019/06/12 01:00:02;;;;;;;17.5;16;;;;;;;16.13;99.60645;94495.62;;;;
2019/06/12 01:01:04;;;;;;;17.5;16;;;;;;;16.13;99.60645;94495.62;;;;
2019/06/12 01:02:05;;;;;;;17.5;16;;;;;;;16.13;99.60645;94495.62;;;;
2019/06/12 01:03:06;;;;;;;17.5;16;;;;;;;16.13;99.60645;94495.62;;;;
2019/06/12 01:04:07;;;;;;;17.5;16;;;;;;;16.13;99.60645;94495.62;;;;
2019/06/12 01:05:08;;;;;;;17.5;16;;;;;;;16.13;99.60645;94495.62;;;;
2019/06/12 01:06:10;;;;;;;17.5;16;;;;;;;16.13;99.60645;94495.62;;;;
2019/06/12 01:07:11;;;;;;;17.5;16;;;;;;;16.13;99.60645;94495.62;;;;
2019/06/12 01:08:12;;;;;;;17.5;16;;;;;;;16.13;99.60645;94495.62;;;;
2019/06/12 01:09:13;;;;;;;19.6;17.65;;;;;;;15.28;100;94467.42;;;;
2019/06/12 01:10:14;;;;;;;19.6;17.65;;;;;;;15.28;100;94467.42;;;;
2019/06/12 01:11:15;;;;;;;19.6;17.65;;;;;;;15.28;100;94467.42;;;;
2019/06/12 01:12:16;;;;;;;19.6;17.65;;;;;;;15.28;100;94467.42;;;;
2019/06/12 01:13:17;;;;;;;19.6;17.65;;;;;;;15.28;100;94467.42;;;;
2019/06/12 01:14:19;;;;;;;19.6;17.65;;;;;;;15.28;100;94467.42;;;;
2019/06/12 01:15:20;;;;;;;19.6;17.65;;;;;;;15.28;100;94467.42;;;;
2019/06/12 01:16:21;;;;;;;19.6;17.65;;;;;;;15.28;100;94467.42;;;;
2019/06/12 01:17:22;;;;;;;19.6;17.65;;;;;;;15.28;100;94467.42;;;;
2019/06/12 01:18:24;;;;;;;19.6;17.65;;;;;;;15.28;100;94467.42;;;;
2019/06/12 01:19:25;;;;;;;19.6;17.65;;;;;;;15.28;100;94467.42;;;;
2019/06/12 01:20:26;;;;;;;19.6;17.65;;;;;;;15.28;100;94467.42;;;;
2019/06/12 01:21:27;;;;;;;19.6;17.65;;;;;;;15.28;100;94467.42;;;;
2019/06/12 01:22:28;;;;;;;19.6;17.65;;;;;;;15.28;100;94467.42;;;;
2019/06/12 01:23:29;;;;;;;19.6;17.65;;;;;;;15.28;100;94467.42;;;;
2019/06/12 01:24:31;;;;;;;19.6;17.65;;;;;;;15.28;100;94467.42;;;;
2019/06/12 01:25:32;;;;;;;19.6;17.65;;;;;;;15.28;100;94467.42;;;;
2019/06/12 01:26:33;;;;;;;19.6;17.65;;;;;;;15.28;100;94467.42;;;;
2019/06/12 01:27:34;;;;;;;19.6;17.65;;;;;;;15.28;100;94467.42;;;;
2019/06/12 01:28:35;;;;;;;19.6;17.65;;;;;;;15.28;100;94467.42;;;;
2019/06/12 01:29:36;;;;;;;19.6;17.65;;;;;;;15.28;100;94467.42;;;;
2019/06/12 01:30:37;;;;;;;20.75;18.85;;;;;;;15.09;100;94462.41;;;;
2019/06/12 01:31:39;;;;;;;20.75;18.85;;;;;;;15.09;100;94462.41;;;;
2019/06/12 01:32:40;;;;;;;20.75;18.85;;;;;;;15.09;100;94462.41;;;;
2019/06/12 01:33:41;;;;;;;20.75;18.85;;;;;;;15.09;100;94462.41;;;;
2019/06/12 01:34:43;;;;;;;20.75;18.85;;;;;;;15.09;100;94462.41;;;;
2019/06/12 01:35:44;;;;;;;20.75;18.85;;;;;;;15.09;100;94462.41;;;;
2019/06/12 01:36:45;;;;;;;20.75;18.85;;;;;;;15.09;100;94462.41;;;;
2019/06/12 01:37:46;;;;;;;20.75;18.85;;;;;;;15.09;100;94462.41;;;;
2019/06/12 01:38:47;;;;;;;20.75;18.85;;;;;;;15.09;100;94462.41;;;;
2019/06/12 01:39:48;;;;;;;20.75;18.85;;;;;;;15.09;100;94462.41;;;;
2019/06/12 01:40:49;;;;;;;21.55;19.4;;;;;;;15.06;100;94437.55;;;;
2019/06/12 01:41:50;;;;;;;21.55;19.4;;;;;;;15.06;100;94437.55;;;;
2019/06/12 01:42:51;;;;;;;21.55;19.4;;;;;;;15.06;100;94437.55;;;;
2019/06/12 01:43:52;;;;;;;21.55;19.4;;;;;;;15.06;100;94437.55;;;;
2019/06/12 01:44:54;;;;;;;21.55;19.4;;;;;;;15.06;100;94437.55;;;;
2019/06/12 01:45:55;;;;;;;21.55;19.4;;;;;;;15.06;100;94437.55;;;;
2019/06/12 01:46:56;;;;;;;21.55;19.4;;;;;;;15.06;100;94437.55;;;;
2019/06/12 01:47:57;;;;;;;21.55;19.4;;;;;;;15.06;100;94437.55;;;;
2019/06/12 01:48:58;;;;;;;21.55;19.4;;;;;;;15.06;100;94437.55;;;;
2019/06/12 01:49:59;;;;;;;21.55;19.4;;;;;;;15.06;100;94437.55;;;;
2019/06/12 01:51:00;;;;;;;21.55;19.4;;;;;;;15.06;100;94437.55;;;;
2019/06/12 01:52:01;;;;;;;21.55;19.4;;;;;;;15.06;100;94437.55;;;;
2019/06/12 01:53:02;;;;;;;21.55;19.4;;;;;;;15.06;100;94437.55;;;;
2019/06/12 01:54:04;;;;;;;21.55;19.4;;;;;;;15.06;100;94437.55;;;;
2019/06/12 01:55:05;;;;;;;21.55;19.4;;;;;;;15.06;100;94437.55;;;;
2019/06/12 01:56:06;;;;;;;21.55;19.4;;;;;;;15.06;100;94437.55;;;;
2019/06/12 01:57:07;;;;;;;21.55;19.4;;;;;;;15.06;100;94437.55;;;;
2019/06/12 01:58:08;;;;;;;21.55;19.4;;;;;;;15.06;100;94437.55;;;;
2019/06/12 01:59:09;;;;;;;21.55;19.4;;;;;;;15.06;100;94437.55;;;;
2019/06/12 02:00:10;;;;;;;21.55;19.4;;;;;;;15.06;100;94437.55;;;;
2019/06/12 02:01:12;;;;;;;21.55;19.4;;;;;;;15.06;100;94437.55;;;;
2019/06/12 02:02:13;;;;;;;20.6;18.8;;;;;;;14.98;100;94429.44;;;;
2019/06/12 02:03:14;;;;;;;20.6;18.8;;;;;;;14.98;100;94429.44;;;;
2019/06/12 02:04:15;;;;;;;20.6;18.8;;;;;;;14.98;100;94429.44;;;;
2019/06/12 02:05:16;;;;;;;20.6;18.8;;;;;;;14.98;100;94429.44;;;;
2019/06/12 02:06:17;;;;;;;20.6;18.8;;;;;;;14.98;100;94429.44;;;;
2019/06/12 02:07:18;;;;;;;20.6;18.8;;;;;;;14.98;100;94429.44;;;;
2019/06/12 02:08:19;;;;;;;20.6;18.8;;;;;;;14.98;100;94429.44;;;;
2019/06/12 02:09:21;;;;;;;20.6;18.8;;;;;;;14.98;100;94429.44;;;;
2019/06/12 02:10:22;;;;;;;20.6;18.8;;;;;;;14.98;100;94429.44;;;;
2019/06/12 02:11:24;;;;;;;20.6;18.8;;;;;;;14.98;100;94429.44;;;;
2019/06/12 02:12:25;;;;;;;18.85;17.1;;;;;;;14.86;100;94451.28;;;;
2019/06/12 02:13:26;;;;;;;18.85;17.1;;;;;;;14.86;100;94451.28;;;;
2019/06/12 02:14:27;;;;;;;18.85;17.1;;;;;;;14.86;100;94451.28;;;;
2019/06/12 02:15:28;;;;;;;18.85;17.1;;;;;;;14.86;100;94451.28;;;;
2019/06/12 02:16:30;;;;;;;18.85;17.1;;;;;;;14.86;100;94451.28;;;;
2019/06/12 02:17:31;;;;;;;18.85;17.1;;;;;;;14.86;100;94451.28;;;;
2019/06/12 02:18:32;;;;;;;18.85;17.1;;;;;;;14.86;100;94451.28;;;;
2019/06/12 02:19:33;;;;;;;18.85;17.1;;;;;;;14.86;100;94451.28;;;;
2019/06/12 02:20:34;;;;;;;18.85;17.1;;;;;;;14.86;100;94451.28;;;;
2019/06/12 02:21:36;;;;;;;18.85;17.1;;;;;;;14.86;100;94451.28;;;;
2019/06/12 02:22:37;;;;;;;18.85;17.1;;;;;;;14.86;100;94451.28;;;;
2019/06/12 02:23:38;;;;;;;17.65;16.1;;;;;;;14.74;100;94435.35;;;;
2019/06/12 02:24:40;;;;;;;17.65;16.1;;;;;;;14.74;100;94435.35;;;;
2019/06/12 02:25:41;;;;;;;17.65;16.1;;;;;;;14.74;100;94435.35;;;;
2019/06/12 02:26:42;;;;;;;17.65;16.1;;;;;;;14.74;100;94435.35;;;;
2019/06/12 02:27:43;;;;;;;17.65;16.1;;;;;;;14.74;100;94435.35;;;;
2019/06/12 02:28:44;;;;;;;17.65;16.1;;;;;;;14.74;100;94435.35;;;;
2019/06/12 02:29:45;;;;;;;17.65;16.1;;;;;;;14.74;100;94435.35;;;;
2019/06/12 02:30:46;;;;;;;17.65;16.1;;;;;;;14.74;100;94435.35;;;;
2019/06/12 02:31:48;;;;;;;17.65;16.1;;;;;;;14.74;100;94435.35;;;;
2019/06/12 02:32:49;;;;;;;17.65;16.1;;;;;;;14.74;100;94435.35;;;;
2019/06/12 02:33:50;;;;;;;20.55;18.55;;;;;;;14.53;100;94423.53;;;;
2019/06/12 02:34:51;;;;;;;20.55;18.55;;;;;;;14.53;100;94423.53;;;;
2019/06/12 02:35:52;;;;;;;20.55;18.55;;;;;;;14.53;100;94423.53;;;;
2019/06/12 02:36:53;;;;;;;20.55;18.55;;;;;;;14.53;100;94423.53;;;;
2019/06/12 02:37:55;;;;;;;20.55;18.55;;;;;;;14.53;100;94423.53;;;;
2019/06/12 02:38:56;;;;;;;20.55;18.55;;;;;;;14.53;100;94423.53;;;;
2019/06/12 02:39:57;;;;;;;20.55;18.55;;;;;;;14.53;100;94423.53;;;;
2019/06/12 02:40:58;;;;;;;20.55;18.55;;;;;;;14.53;100;94423.53;;;;
2019/06/12 02:41:59;;;;;;;20.55;18.55;;;;;;;14.53;100;94423.53;;;;
2019/06/12 02:43:00;;;;;;;20.55;18.55;;;;;;;14.53;100;94423.53;;;;
2019/06/12 02:44:01;;;;;;;20.55;18.55;;;;;;;14.53;100;94423.53;;;;
2019/06/12 02:45:03;;;;;;;18.35;16.6;;;;;;;14.35;100;94417.38;;;;
2019/06/12 02:46:04;;;;;;;18.35;16.6;;;;;;;14.35;100;94417.38;;;;
2019/06/12 02:47:05;;;;;;;18.35;16.6;;;;;;;14.35;100;94417.38;;;;
2019/06/12 02:48:06;;;;;;;18.35;16.6;;;;;;;14.35;100;94417.38;;;;
2019/06/12 02:49:07;;;;;;;18.35;16.6;;;;;;;14.35;100;94417.38;;;;
2019/06/12 02:50:09;;;;;;;18.35;16.6;;;;;;;14.35;100;94417.38;;;;
2019/06/12 02:51:10;;;;;;;18.35;16.6;;;;;;;14.35;100;94417.38;;;;
2019/06/12 02:52:11;;;;;;;18.35;16.6;;;;;;;14.35;100;94417.38;;;;
2019/06/12 02:53:12;;;;;;;18.35;16.6;;;;;;;14.35;100;94417.38;;;;
2019/06/12 02:54:13;;;;;;;18.35;16.6;;;;;;;14.35;100;94417.38;;;;
2019/06/12 02:55:14;;;;;;;22.15;19.95;;;;;;;14.2;100;94434.94;;;;
2019/06/12 02:56:41;;;;;;;22.15;19.95;;;;;;;14.2;100;94434.94;;;;
2019/06/12 02:57:42;;;;;;;22.15;19.95;;;;;;;14.2;100;94434.94;;;;
2019/06/12 02:58:43;;;;;;;22.15;19.95;;;;;;;14.2;100;94434.94;;;;
2019/06/12 02:59:44;;;;;;;22.15;19.95;;;;;;;14.2;100;94434.94;;;;
2019/06/12 03:00:46;;;;;;;22.15;19.95;;;;;;;14.2;100;94434.94;;;;
2019/06/12 03:01:47;;;;;;;22.15;19.95;;;;;;;14.2;100;94434.94;;;;
2019/06/12 03:02:48;;;;;;;22.15;19.95;;;;;;;14.2;100;94434.94;;;;
2019/06/12 03:03:49;;;;;;;22.15;19.95;;;;;;;14.2;100;94434.94;;;;
2019/06/12 03:04:50;;;;;;;22.15;19.95;;;;;;;14.2;100;94434.94;;;;
2019/06/12 03:05:51;;;;;;;28.5;25.7;;;;;;;14.44;100;94416.52;;;;
2019/06/12 03:06:53;;;;;;;28.5;25.7;;;;;;;14.44;100;94416.52;;;;
2019/06/12 03:07:55;;;;;;;28.5;25.7;;;;;;;14.44;100;94416.52;;;;
2019/06/12 03:08:56;;;;;;;28.5;25.7;;;;;;;14.44;100;94416.52;;;;
2019/06/12 03:09:57;;;;;;;28.5;25.7;;;;;;;14.44;100;94416.52;;;;
2019/06/12 03:10:58;;;;;;;28.5;25.7;;;;;;;14.44;100;94416.52;;;;
2019/06/12 03:11:59;;;;;;;28.5;25.7;;;;;;;14.44;100;94416.52;;;;
2019/06/12 03:13:00;;;;;;;28.5;25.7;;;;;;;14.44;100;94416.52;;;;
2019/06/12 03:14:02;;;;;;;28.5;25.7;;;;;;;14.44;100;94416.52;;;;
2019/06/12 03:15:03;;;;;;;28.5;25.7;;;;;;;14.44;100;94416.52;;;;
2019/06/12 03:16:04;;;;;;;35.2;31.65;;;;;;;14.71;100;94415.12;;;;
2019/06/12 03:17:05;;;;;;;35.2;31.65;;;;;;;14.71;100;94415.12;;;;
2019/06/12 03:18:06;;;;;;;35.2;31.65;;;;;;;14.71;100;94415.12;;;;
2019/06/12 03:19:07;;;;;;;35.2;31.65;;;;;;;14.71;100;94415.12;;;;
2019/06/12 03:20:09;;;;;;;35.2;31.65;;;;;;;14.71;100;94415.12;;;;
2019/06/12 03:21:10;;;;;;;35.2;31.65;;;;;;;14.71;100;94415.12;;;;
2019/06/12 03:22:11;;;;;;;35.2;31.65;;;;;;;14.71;100;94415.12;;;;
2019/06/12 03:23:12;;;;;;;35.2;31.65;;;;;;;14.71;100;94415.12;;;;
2019/06/12 03:24:13;;;;;;;35.2;31.65;;;;;;;14.71;100;94415.12;;;;
2019/06/12 03:25:14;;;;;;;35.2;31.65;;;;;;;14.71;100;94415.12;;;;
2019/06/12 03:26:15;;;;;;;35.2;31.65;;;;;;;14.71;100;94415.12;;;;
2019/06/12 03:27:17;;;;;;;32.35;29.1;;;;;;;14.97;100;94388.55;;;;
2019/06/12 03:28:18;;;;;;;32.35;29.1;;;;;;;14.97;100;94388.55;;;;
2019/06/12 03:29:19;;;;;;;32.35;29.1;;;;;;;14.97;100;94388.55;;;;
2019/06/12 03:30:20;;;;;;;32.35;29.1;;;;;;;14.97;100;94388.55;;;;
2019/06/12 03:31:21;;;;;;;32.35;29.1;;;;;;;14.97;100;94388.55;;;;
2019/06/12 03:32:22;;;;;;;32.35;29.1;;;;;;;14.97;100;94388.55;;;;
2019/06/12 03:33:24;;;;;;;32.35;29.1;;;;;;;14.97;100;94388.55;;;;
2019/06/12 03:34:25;;;;;;;32.35;29.1;;;;;;;14.97;100;94388.55;;;;
2019/06/12 03:35:26;;;;;;;32.35;29.1;;;;;;;14.97;100;94388.55;;;;
2019/06/12 03:36:27;;;;;;;32.35;29.1;;;;;;;14.97;100;94388.55;;;;
2019/06/12 03:37:28;;;;;;;34.5;31.05;;;;;;;15.12;100;94386.94;;;;
2019/06/12 03:38:29;;;;;;;34.5;31.05;;;;;;;15.12;100;94386.94;;;;
2019/06/12 03:39:30;;;;;;;34.5;31.05;;;;;;;15.12;100;94386.94;;;;
2019/06/12 03:40:31;;;;;;;34.5;31.05;;;;;;;15.12;100;94386.94;;;;
2019/06/12 03:41:32;;;;;;;34.5;31.05;;;;;;;15.12;100;94386.94;;;;
2019/06/12 03:42:34;;;;;;;34.5;31.05;;;;;;;15.12;100;94386.94;;;;
2019/06/12 03:43:35;;;;;;;34.5;31.05;;;;;;;15.12;100;94386.94;;;;
2019/06/12 03:44:36;;;;;;;34.5;31.05;;;;;;;15.12;100;94386.94;;;;
2019/06/12 03:45:37;;;;;;;34.5;31.05;;;;;;;15.12;100;94386.94;;;;
2019/06/12 03:46:38;;;;;;;34.5;31.05;;;;;;;15.12;100;94386.94;;;;
2019/06/12 03:47:39;;;;;;;34.5;31.05;;;;;;;15.12;100;94386.94;;;;
2019/06/12 03:48:40;;;;;;;34.5;31.05;;;;;;;15.12;100;94386.94;;;;
2019/06/12 03:49:41;;;;;;;34.5;31.05;;;;;;;15.12;100;94386.94;;;;
2019/06/12 03:50:42;;;;;;;34.5;31.05;;;;;;;15.12;100;94386.94;;;;
2019/06/12 03:51:44;;;;;;;34.5;31.05;;;;;;;15.12;100;94386.94;;;;
2019/06/12 03:52:45;;;;;;;34.5;31.05;;;;;;;15.12;100;94386.94;;;;
2019/06/12 03:53:46;;;;;;;34.5;31.05;;;;;;;15.12;100;94386.94;;;;
2019/06/12 03:54:48;;;;;;;34.5;31.05;;;;;;;15.12;100;94386.94;;;;
2019/06/12 03:55:49;;;;;;;34.5;31.05;;;;;;;15.12;100;94386.94;;;;
2019/06/12 03:56:50;;;;;;;34.5;31.05;;;;;;;15.12;100;94386.94;;;;
2019/06/12 03:57:51;;;;;;;34.5;31.05;;;;;;;15.12;100;94386.94;;;;
2019/06/12 03:58:52;;;;;;;34.5;31.05;;;;;;;15.12;100;94386.94;;;;
2019/06/12 03:59:53;;;;;;;34.5;31.05;;;;;;;15.12;100;94386.94;;;;
2019/06/12 04:00:54;;;;;;;34.5;31.05;;;;;;;15.12;100;94386.94;;;;
2019/06/12 04:01:55;;;;;;;34.5;31.05;;;;;;;15.12;100;94386.94;;;;
2019/06/12 04:02:56;;;;;;;34.5;31.05;;;;;;;15.12;100;94386.94;;;;
2019/06/12 04:03:57;;;;;;;34.5;31.05;;;;;;;15.12;100;94386.94;;;;
2019/06/12 04:04:58;;;;;;;34.5;31.05;;;;;;;15.12;100;94386.94;;;;
2019/06/12 04:05:59;;;;;;;34.5;31.05;;;;;;;15.12;100;94386.94;;;;
2019/06/12 04:07:00;;;;;;;34.5;31.05;;;;;;;15.12;100;94386.94;;;;
2019/06/12 04:08:02;;;;;;;34.5;31.05;;;;;;;15.12;100;94386.94;;;;
2019/06/12 04:09:03;;;;;;;34.5;31.05;;;;;;;15.12;100;94386.94;;;;
2019/06/12 04:10:05;;;;;;;32.8;29.5;;;;;;;15.72;100;94351.65;;;;
2019/06/12 04:11:06;;;;;;;32.8;29.5;;;;;;;15.72;100;94351.65;;;;
2019/06/12 04:12:07;;;;;;;32.8;29.5;;;;;;;15.72;100;94351.65;;;;
2019/06/12 04:13:08;;;;;;;32.8;29.5;;;;;;;15.72;100;94351.65;;;;
2019/06/12 04:14:10;;;;;;;32.8;29.5;;;;;;;15.72;100;94351.65;;;;
2019/06/12 04:15:11;;;;;;;32.8;29.5;;;;;;;15.72;100;94351.65;;;;
2019/06/12 04:16:12;;;;;;;32.8;29.5;;;;;;;15.72;100;94351.65;;;;
2019/06/12 04:17:13;;;;;;;32.8;29.5;;;;;;;15.72;100;94351.65;;;;
2019/06/12 04:18:14;;;;;;;32.8;29.5;;;;;;;15.72;100;94351.65;;;;
2019/06/12 04:19:15;;;;;;;32.8;29.5;;;;;;;15.72;100;94351.65;;;;
2019/06/12 04:20:16;;;;;;;31.95;28.8;;;;;;;15.88;100;94353.09;;;;
2019/06/12 04:21:27;;;;;;;31.95;28.8;;;;;;;15.88;100;94353.09;;;;
2019/06/12 04:22:28;;;;;;;31.95;28.8;;;;;;;15.88;100;94353.09;;;;
2019/06/12 04:23:29;;;;;;;31.95;28.8;;;;;;;15.88;100;94353.09;;;;
2019/06/12 04:24:30;;;;;;;31.95;28.8;;;;;;;15.88;100;94353.09;;;;
2019/06/12 04:25:31;;;;;;;31.95;28.8;;;;;;;15.88;100;94353.09;;;;
2019/06/12 04:26:33;;;;;;;31.95;28.8;;;;;;;15.88;100;94353.09;;;;
2019/06/12 04:27:34;;;;;;;31.95;28.8;;;;;;;15.88;100;94353.09;;;;
2019/06/12 04:28:35;;;;;;;31.95;28.8;;;;;;;15.88;100;94353.09;;;;
2019/06/12 04:29:36;;;;;;;31.95;28.8;;;;;;;15.88;100;94353.09;;;;
2019/06/12 04:30:37;;;;;;;32.89999;29.75;;;;;;;16.08;100;94330.1;;;;
2019/06/12 04:31:38;;;;;;;32.89999;29.75;;;;;;;16.08;100;94330.1;;;;
2019/06/12 04:32:39;;;;;;;32.89999;29.75;;;;;;;16.08;100;94330.1;;;;
2019/06/12 04:33:40;;;;;;;32.89999;29.75;;;;;;;16.08;100;94330.1;;;;
2019/06/12 04:34:41;;;;;;;32.89999;29.75;;;;;;;16.08;100;94330.1;;;;
2019/06/12 04:35:42;;;;;;;32.89999;29.75;;;;;;;16.08;100;94330.1;;;;
2019/06/12 04:36:43;;;;;;;32.89999;29.75;;;;;;;16.08;100;94330.1;;;;
2019/06/12 04:37:44;;;;;;;32.89999;29.75;;;;;;;16.08;100;94330.1;;;;
2019/06/12 04:38:45;;;;;;;32.89999;29.75;;;;;;;16.08;100;94330.1;;;;
2019/06/12 04:39:46;;;;;;;32.89999;29.75;;;;;;;16.08;100;94330.1;;;;
2019/06/12 04:40:47;;;;;;;32.89999;29.75;;;;;;;16.08;100;94330.1;;;;
2019/06/12 04:41:49;;;;;;;32.89999;29.75;;;;;;;16.08;100;94330.1;;;;
2019/06/12 04:42:50;;;;;;;32.89999;29.75;;;;;;;16.08;100;94330.1;;;;
2019/06/12 04:43:51;;;;;;;32.89999;29.75;;;;;;;16.08;100;94330.1;;;;
2019/06/12 04:44:52;;;;;;;32.89999;29.75;;;;;;;16.08;100;94330.1;;;;
2019/06/12 04:45:53;;;;;;;32.89999;29.75;;;;;;;16.08;100;94330.1;;;;
2019/06/12 04:46:54;;;;;;;32.89999;29.75;;;;;;;16.08;100;94330.1;;;;
2019/06/12 04:47:55;;;;;;;32.89999;29.75;;;;;;;16.08;100;94330.1;;;;
2019/06/12 04:48:56;;;;;;;32.89999;29.75;;;;;;;16.08;100;94330.1;;;;
2019/06/12 04:49:57;;;;;;;32.89999;29.75;;;;;;;16.08;100;94330.1;;;;
2019/06/12 04:50:58;;;;;;;32.89999;29.75;;;;;;;16.08;100;94330.1;;;;
2019/06/12 04:51:59;;;;;;;32.55;29.4;;;;;;;16.08;100;94337.28;;;;
2019/06/12 04:53:00;;;;;;;32.55;29.4;;;;;;;16.08;100;94337.28;;;;
2019/06/12 04:54:01;;;;;;;32.55;29.4;;;;;;;16.08;100;94337.28;;;;
2019/06/12 04:55:02;;;;;;;32.55;29.4;;;;;;;16.08;100;94337.28;;;;
2019/06/12 04:56:03;;;;;;;32.55;29.4;;;;;;;16.08;100;94337.28;;;;
2019/06/12 04:57:04;;;;;;;32.55;29.4;;;;;;;16.08;100;94337.28;;;;
2019/06/12 04:58:06;;;;;;;32.55;29.4;;;;;;;16.08;100;94337.28;;;;
2019/06/12 04:59:07;;;;;;;32.55;29.4;;;;;;;16.08;100;94337.28;;;;
2019/06/12 05:00:08;;;;;;;32.55;29.4;;;;;;;16.08;100;94337.28;;;;
2019/06/12 05:01:09;;;;;;;32.55;29.4;;;;;;;16.08;100;94337.28;;;;
2019/06/12 05:02:10;;;;;;;32.55;29.4;;;;;;;16.08;100;94337.28;;;;
2019/06/12 05:03:11;;;;;;;32.55;29.4;;;;;;;16.08;100;94337.28;;;;
2019/06/12 05:04:12;;;;;;;32.55;29.4;;;;;;;16.08;100;94337.28;;;;
2019/06/12 05:05:13;;;;;;;32.55;29.4;;;;;;;16.08;100;94337.28;;;;
2019/06/12 05:06:14;;;;;;;32.55;29.4;;;;;;;16.08;100;94337.28;;;;
2019/06/12 05:07:15;;;;;;;32.55;29.4;;;;;;;16.08;100;94337.28;;;;
2019/06/12 05:08:16;;;;;;;32.55;29.4;;;;;;;16.08;100;94337.28;;;;
2019/06/12 05:09:18;;;;;;;32.55;29.4;;;;;;;16.08;100;94337.28;;;;
2019/06/12 05:10:19;;;;;;;32.55;29.4;;;;;;;16.08;100;94337.28;;;;
2019/06/12 05:11:20;;;;;;;32.55;29.4;;;;;;;16.08;100;94337.28;;;;
2019/06/12 05:12:21;;;;;;;32.55;29.4;;;;;;;16.08;100;94337.28;;;;
2019/06/12 05:13:22;;;;;;;32.05;28.9;;;;;;;16.12;100;94315.76;;;;
2019/06/12 05:14:23;;;;;;;32.05;28.9;;;;;;;16.12;100;94315.76;;;;
2019/06/12 05:15:24;;;;;;;32.05;28.9;;;;;;;16.12;100;94315.76;;;;
2019/06/12 05:16:25;;;;;;;32.05;28.9;;;;;;;16.12;100;94315.76;;;;
2019/06/12 05:17:26;;;;;;;32.05;28.9;;;;;;;16.12;100;94315.76;;;;
2019/06/12 05:18:27;;;;;;;32.05;28.9;;;;;;;16.12;100;94315.76;;;;
2019/06/12 05:19:28;;;;;;;32.05;28.9;;;;;;;16.12;100;94315.76;;;;
2019/06/12 05:20:30;;;;;;;32.05;28.9;;;;;;;16.12;100;94315.76;;;;
2019/06/12 05:21:31;;;;;;;32.05;28.9;;;;;;;16.12;100;94315.76;;;;
2019/06/12 05:22:32;;;;;;;32.05;28.9;;;;;;;16.12;100;94315.76;;;;
2019/06/12 05:23:33;;;;;;;32.05;28.9;;;;;;;16.12;100;94315.76;;;;
2019/06/12 05:24:34;;;;;;;33.35;30;;;;;;;16.19;100;94289.75;;;;
2019/06/12 05:25:35;;;;;;;33.35;30;;;;;;;16.19;100;94289.75;;;;
2019/06/12 05:26:36;;;;;;;33.35;30;;;;;;;16.19;100;94289.75;;;;
2019/06/12 05:27:37;;;;;;;33.35;30;;;;;;;16.19;100;94289.75;;;;
2019/06/12 05:28:38;;;;;;;33.35;30;;;;;;;16.19;100;94289.75;;;;
2019/06/12 05:29:39;;;;;;;33.35;30;;;;;;;16.19;100;94289.75;;;;
2019/06/12 05:30:40;;;;;;;33.35;30;;;;;;;16.19;100;94289.75;;;;
2019/06/12 05:31:41;;;;;;;33.35;30;;;;;;;16.19;100;94289.75;;;;
2019/06/12 05:32:42;;;;;;;33.35;30;;;;;;;16.19;100;94289.75;;;;
2019/06/12 05:33:43;;;;;;;33.35;30;;;;;;;16.19;100;94289.75;;;;
2019/06/12 05:34:44;;;;;;;34.85;31.3;;;;;;;16.39;100;94305.97;;;;
2019/06/12 05:35:45;;;;;;;34.85;31.3;;;;;;;16.39;100;94305.97;;;;
2019/06/12 05:36:46;;;;;;;34.85;31.3;;;;;;;16.39;100;94305.97;;;;
2019/06/12 05:37:48;;;;;;;34.85;31.3;;;;;;;16.39;100;94305.97;;;;
2019/06/12 05:38:49;;;;;;;34.85;31.3;;;;;;;16.39;100;94305.97;;;;
2019/06/12 05:39:50;;;;;;;34.85;31.3;;;;;;;16.39;100;94305.97;;;;
2019/06/12 05:40:51;;;;;;;34.85;31.3;;;;;;;16.39;100;94305.97;;;;
2019/06/12 05:41:52;;;;;;;34.85;31.3;;;;;;;16.39;100;94305.97;;;;
2019/06/12 05:42:53;;;;;;;34.85;31.3;;;;;;;16.39;100;94305.97;;;;
2019/06/12 05:43:54;;;;;;;34.85;31.3;;;;;;;16.39;100;94305.97;;;;
2019/06/12 05:44:55;;;;;;;34.5;31.15;;;;;;;16.61;100;94274.69;;;;
2019/06/12 05:45:56;;;;;;;34.5;31.15;;;;;;;16.61;100;94274.69;;;;
2019/06/12 05:46:57;;;;;;;34.5;31.15;;;;;;;16.61;100;94274.69;;;;
2019/06/12 05:47:58;;;;;;;34.5;31.15;;;;;;;16.61;100;94274.69;;;;
2019/06/12 05:48:59;;;;;;;34.5;31.15;;;;;;;16.61;100;94274.69;;;;
2019/06/12 05:50:00;;;;;;;34.5;31.15;;;;;;;16.61;100;94274.69;;;;
2019/06/12 05:51:03;;;;;;;34.5;31.15;;;;;;;16.61;100;94274.69;;;;
2019/06/12 05:52:04;;;;;;;34.5;31.15;;;;;;;16.61;100;94274.69;;;;
2019/06/12 05:53:05;;;;;;;34.5;31.15;;;;;;;16.61;100;94274.69;;;;
2019/06/12 05:54:06;;;;;;;34.5;31.15;;;;;;;16.61;100;94274.69;;;;
2019/06/12 05:55:07;;;;;;;34.5;31.15;;;;;;;16.61;100;94274.69;;;;
2019/06/12 05:56:08;;;;;;;36.15;32.55;;;;;;;16.86;100;94289.81;;;;
2019/06/12 05:57:09;;;;;;;36.15;32.55;;;;;;;16.86;100;94289.81;;;;
2019/06/12 05:58:10;;;;;;;36.15;32.55;;;;;;;16.86;100;94289.81;;;;
2019/06/12 05:59:11;;;;;;;36.15;32.55;;;;;;;16.86;100;94289.81;;;;
2019/06/12 06:00:12;;;;;;;36.15;32.55;;;;;;;16.86;100;94289.81;;;;
2019/06/12 06:01:13;;;;;;;36.15;32.55;;;;;;;16.86;100;94289.81;;;;
2019/06/12 06:02:14;;;;;;;36.15;32.55;;;;;;;16.86;100;94289.81;;;;